METAR Data
IDs: Format: Raw Decoded Include TAF

Data at: 1042 UTC 26 Sep 2018

KBHK 260951Z AUTO 22006KT 10SM CLR 06/M01 A3015 RMK AO2 SLP213 T00561006
KBHK 260851Z AUTO 22010KT 10SM CLR 06/M01 A3016 RMK AO2 SLP219 T00561006 58010
KBHK 260751Z AUTO 25004KT 10SM CLR 04/M01 A3018 RMK AO2 SLP228 T00391006
KBHK 260651Z AUTO 23006KT 10SM CLR 04/M01 A3019 RMK AO2 SLP232 T00391006 401390017
KBHK 260551Z AUTO 00000KT 10SM CLR 03/M01 A3020 RMK AO2 SLP236 T00281011 10128 20022 51001
KBHK 260451Z AUTO 26004KT 10SM CLR 04/M01 A3020 RMK AO2 SLP236 T00391006
KBHK 260351Z AUTO 26008KT 10SM FEW075 04/M01 A3020 RMK AO2 SLP237 T00441006
KBHK 260251Z AUTO 26009KT 10SM FEW085 06/M01 A3019 RMK AO2 SLP234 T00561006 51009
KBHK 260151Z AUTO 28008KT 10SM FEW070 07/M01 A3019 RMK AO2 SLP234 T00721006
KBHK 260051Z AUTO 29011KT 10SM CLR 11/M01 A3018 RMK AO2 PK WND 30026/2354 SLP226 T01061011
KBHK 252351Z AUTO 31018G28KT 10SM FEW001 13/M03 A3016 RMK AO2 PK WND 31028/2347 SLP219 T01281028 10139 20100 51002
KBHK 252328Z AUTO 31013G21KT 10SM FEW002 13/M02 A3016 RMK AO2 T01281017
KBHK 252251Z AUTO 32018G22KT 10SM FEW090 13/M01 A3016 RMK AO2 SLP218 T01281006
KBHK 252151Z AUTO 32019G27KT 10SM BKN075 OVC085 12/00 A3016 RMK AO2 PK WND 32029/2102 SLP219 T01220000
KBHK 252051Z AUTO 31023G30KT 10SM FEW050 BKN065 12/M01 A3016 RMK AO2 PK WND 31034/2020 SLP219 T01221006 53003
KBHK 251951Z AUTO 31020G32KT 10SM SCT049 BKN055 13/01 A3015 RMK AO2 PK WND 31032/1853 SLP212 T01280006
KBHK 251851Z AUTO 31022G31KT 10SM BKN041 BKN050 12/01 A3015 RMK AO2 PK WND 30033/1824 SLP213 T01170006
KBHK 251751Z AUTO 31021G30KT 10SM SCT035 BKN045 11/02 A3015 RMK AO2 PK WND 31036/1737 SLP212 T01060022 10117 20061 51005
KBHK 251702Z AUTO 30024G32KT 10SM SCT026 BKN033 11/04 A3014 RMK AO2 PK WND 29032/1701 T01060039
KBHK 251651Z AUTO 31022G34KT 10SM BKN025 BKN031 09/03 A3014 RMK AO2 PK WND 31034/1647 SLP212 T00940033
KBHK 251613Z AUTO 30019G30KT 10SM SCT022 BKN030 09/04 A3014 RMK AO2 PK WND 30030/1602 T00940039
KBHK 251551Z AUTO 29022G30KT 10SM BKN020 BKN026 09/04 A3013 RMK AO2 PK WND 29030/1549 SLP209 T00890039
KBHK 251451Z AUTO 29021G26KT 10SM SCT019 BKN029 BKN038 08/05 A3013 RMK AO2 PK WND 29029/1437 SLP209 T00830050 53008
KBHK 251351Z AUTO 28012KT 10SM FEW060 06/04 A3012 RMK AO2 SLP207 T00610044
KBHK 251251Z AUTO 27016KT 10SM BKN037 OVC060 06/04 A3011 RMK AO2 SLP203 T00610044
KBHK 251151Z AUTO 26012KT 10SM SCT021 BKN030 OVC050 06/05 A3010 RMK AO2 SLP198 60002 70003 T00610050 10078 20044 53004
KBHK 251135Z AUTO 26010KT 10SM FEW025 BKN030 OVC050 06/05 A3010 RMK AO2 T00610050
KBHK 251128Z AUTO 26011KT 10SM OVC029 06/05 A3010 RMK AO2 T00610050
KBHK 251051Z AUTO 26012KT 10SM BKN035 OVC050 06/05 A3010 RMK AO2 RAB06E24 SLP196 P0001 T00610050
KBHK 250951Z AUTO 23007KT 10SM SCT046 BKN055 OVC070 06/05 A3009 RMK AO2 SLP194 T00560050
KBHK 250851Z AUTO 26008KT 10SM BKN070 04/04 A3009 RMK AO2 SLP189 60001 T00440044 52005
KBHK 250751Z AUTO 29010KT 10SM OVC085 06/05 A3009 RMK AO2 SLP185 T00610050
KBHK 250651Z AUTO 31010KT 10SM SCT016 OVC065 06/05 A3008 RMK AO2 RAE0553 SLP184 P0001 T00610050 401890028
KBHK 250630Z AUTO 31011KT 10SM SCT010 BKN020 OVC065 07/06 A3008 RMK AO2 RAE0553 P0001 T00670056
KBHK 250601Z AUTO 32009KT 10SM OVC014 08/07 A3007 RMK AO2 RAE0553 P0000 T00780067
KBHK 250551Z AUTO 31009KT 10SM -RA FEW009 BKN015 OVC022 08/07 A3007 RMK AO2 RAB39 SLP181 P0000 60000 T00780067 10094 20078 51010
KBHK 250528Z AUTO 30007KT 10SM FEW009 BKN022 OVC044 08/07 A3007 RMK AO2 T00830072
KBHK 250519Z AUTO 31006KT 10SM FEW012 BKN018 OVC046 08/07 A3007 RMK AO2 T00830072
KBHK 250451Z AUTO 29005KT 10SM FEW016 OVC047 08/07 A3006 RMK AO2 RAB08E36 SLP179 P0000 T00780072
KBHK 250436Z AUTO 28006KT 10SM FEW013 BKN034 OVC045 08/07 A3006 RMK AO2 RAB08E36 P0000 T00830072
KBHK 250351Z AUTO 27006KT 10SM BKN017 OVC025 08/07 A3006 RMK AO2 SLP179 T00830067
KBHK 250338Z AUTO 29005KT 10SM BKN017 OVC060 08/07 A3006 RMK AO2 T00830067
KBHK 250251Z AUTO 30006KT 10SM FEW020 SCT075 08/06 A3004 RMK AO2 SLP176 T00830061 51027
KBHK 250151Z AUTO 33009KT 10SM OVC015 09/07 A3002 RMK AO2 SLP172 T00940067
KBHK 250128Z AUTO 34011KT 10SM BKN016 09/07 A3001 RMK AO2 T00940067
KBHK 250051Z AUTO 33011KT 10SM FEW015 09/07 A2999 RMK AO2 SLP165 T00940067
KBHK 242351Z AUTO 34011KT 10SM FEW002 SCT120 11/06 A2995 RMK AO2 SLP152 60001 T01110056 10189 20111 53017
KBHK 242333Z AUTO 36011KT 10SM FEW002 12/06 A2994 RMK AO2 T01170056
KBHK 242251Z AUTO 35017KT 10SM FEW038 FEW055 12/06 A2993 RMK AO2 PK WND 35026/2207 LTG DSNT SE RAB24E39 SLP141 P0001 T01170061